createdAt,value
2019-03-30T00:01:01.113Z,6.43
2019-03-30T00:03:36.102Z,6.13
2019-03-30T00:06:07.937Z,6.90
2019-03-30T00:08:42.823Z,6.63
2019-03-30T00:11:13.871Z,6.63
2019-03-30T00:13:47.308Z,6.70
2019-03-30T00:16:19.143Z,6.47
2019-03-30T00:18:51.268Z,6.93
2019-03-30T00:21:27.806Z,6.60
2019-03-30T00:24:02.431Z,6.90
2019-03-30T00:26:33.821Z,6.70
2019-03-30T00:29:06.129Z,6.83
2019-03-30T00:31:45.230Z,6.93
2019-03-30T00:34:29.845Z,6.40
2019-03-30T00:37:10.527Z,7.00
2019-03-30T00:39:45.763Z,6.77
2019-03-30T00:42:22.613Z,7.30
2019-03-30T00:44:53.459Z,6.40
2019-03-30T00:47:24.429Z,6.90
2019-03-30T00:49:57.567Z,6.33
2019-03-30T00:55:28.016Z,6.33
2019-03-30T00:58:01.067Z,6.13
2019-03-30T01:00:36.329Z,6.20
2019-03-30T01:03:12.719Z,6.27
2019-03-30T01:05:44.740Z,6.53
2019-03-30T01:08:19.615Z,6.10
2019-03-30T01:10:52.244Z,5.57
2019-03-30T01:13:24.544Z,6.20
2019-03-30T01:15:55.767Z,6.30
2019-03-30T01:18:29.392Z,6.00
2019-03-30T01:21:02.845Z,5.90
2019-03-30T01:23:36.758Z,6.57
2019-03-30T01:26:10.985Z,5.97
2019-03-30T01:28:45.314Z,6.10
2019-03-30T01:31:29.909Z,6.00
2019-03-30T01:34:03.982Z,5.73
2019-03-30T01:36:36.959Z,6.40
2019-03-30T01:39:11.793Z,6.27
2019-03-30T01:41:45.337Z,6.30
2019-03-30T01:44:21.728Z,6.53
2019-03-30T01:46:53.024Z,6.53
2019-03-30T01:49:27.581Z,7.20
2019-03-30T01:52:01.906Z,7.10
2019-03-30T01:54:38.204Z,7.20
2019-03-30T01:57:11.921Z,7.33
2019-03-30T01:59:45.947Z,8.30
2019-03-30T02:02:17.168Z,7.70
2019-03-30T02:04:49.471Z,7.63
2019-03-30T02:07:22.821Z,7.80
2019-03-30T02:09:54.744Z,8.03
2019-03-30T02:12:27.714Z,7.47
2019-03-30T02:14:59.769Z,7.37
2019-03-30T02:17:32.523Z,7.60
2019-03-30T02:20:09.949Z,7.47
2019-03-30T02:22:41.794Z,7.97
2019-03-30T02:25:15.036Z,7.97
2019-03-30T02:27:49.472Z,7.23
2019-03-30T02:30:21.334Z,7.57
2019-03-30T02:32:55.192Z,7.70
2019-03-30T02:35:26.971Z,7.00
2019-03-30T02:38:01.682Z,7.07
2019-03-30T02:40:34.079Z,7.57
2019-03-30T02:43:06.620Z,7.30
2019-03-30T02:45:37.666Z,7.60
2019-03-30T02:48:10.876Z,8.10
2019-03-30T02:50:49.714Z,8.17
2019-03-30T02:53:15.751Z,7.73
2019-03-30T02:55:48.390Z,7.87
2019-03-30T02:58:23.105Z,8.20
2019-03-30T03:00:57.191Z,8.07
2019-03-30T03:03:32.780Z,8.13
2019-03-30T03:06:06.709Z,8.40
2019-03-30T03:08:41.122Z,8.20
2019-03-30T03:11:14.635Z,8.30
2019-03-30T03:13:48.843Z,8.60
2019-03-30T03:16:21.061Z,7.93
2019-03-30T03:18:53.358Z,8.03
2019-03-30T03:21:25.302Z,7.80
2019-03-30T03:23:58.703Z,8.00
2019-03-30T03:26:33.060Z,8.10
2019-03-30T03:29:06.650Z,9.10
2019-03-30T03:31:38.582Z,8.33
2019-03-30T03:34:15.012Z,8.53
2019-03-30T03:36:50.756Z,8.50
2019-03-30T03:39:26.485Z,8.43
2019-03-30T03:42:01.485Z,8.17
2019-03-30T03:44:47.741Z,8.90
2019-03-30T03:47:19.449Z,8.10
2019-03-30T03:49:52.798Z,8.77
2019-03-30T03:52:25.773Z,9.03
2019-03-30T03:54:57.033Z,8.27
2019-03-30T03:57:32.745Z,8.60
2019-03-30T04:00:08.166Z,8.57
2019-03-30T04:02:39.726Z,8.83
2019-03-30T04:05:11.923Z,8.83
2019-03-30T04:07:47.979Z,9.00
2019-03-30T04:10:21.748Z,9.07
2019-03-30T04:12:54.807Z,8.80
2019-03-30T04:15:29.660Z,8.83
2019-03-30T04:18:02.152Z,8.70
2019-03-30T04:20:36.950Z,9.57
2019-03-30T04:23:12.288Z,9.03
2019-03-30T04:25:44.258Z,9.23
2019-03-30T04:28:17.802Z,9.77
2019-03-30T04:30:50.569Z,9.27
2019-03-30T04:33:23.614Z,8.93
2019-03-30T04:35:54.407Z,9.30
2019-03-30T04:38:30.365Z,9.27
2019-03-30T04:41:04.764Z,9.30
2019-03-30T04:43:41.339Z,9.43
2019-03-30T04:46:15.402Z,9.27
2019-03-30T04:48:47.948Z,9.33
2019-03-30T04:51:19.773Z,9.50
2019-03-30T04:53:51.985Z,9.37
2019-03-30T04:56:26.113Z,9.80
2019-03-30T04:58:57.835Z,9.00
2019-03-30T05:01:29.918Z,9.23
2019-03-30T05:04:00.653Z,9.10
2019-03-30T05:06:31.902Z,9.00
2019-03-30T05:09:06.617Z,9.13
2019-03-30T05:11:38.622Z,9.23
2019-03-30T05:14:09.989Z,9.40
2019-03-30T05:16:50.212Z,9.00
2019-03-30T05:19:24.290Z,9.10
2019-03-30T05:22:12.094Z,9.30
2019-03-30T05:24:35.303Z,8.90
2019-03-30T05:27:07.161Z,9.37
2019-03-30T05:29:40.350Z,9.03
2019-03-30T05:32:17.143Z,9.40
2019-03-30T05:34:49.244Z,9.03
2019-03-30T05:37:24.278Z,9.23
2019-03-30T05:39:57.849Z,9.17
2019-03-30T05:42:28.633Z,9.33
2019-03-30T05:44:59.470Z,9.20
2019-03-30T05:47:32.154Z,9.07
2019-03-30T05:50:04.273Z,9.33
2019-03-30T05:52:36.704Z,9.77
2019-03-30T05:55:08.384Z,9.60
2019-03-30T05:57:40.349Z,9.50
2019-03-30T06:00:14.626Z,9.73
2019-03-30T06:02:50.206Z,9.27
2019-03-30T06:05:25.653Z,10.13
2019-03-30T06:08:00.835Z,10.17
2019-03-30T06:10:38.528Z,10.70
2019-03-30T06:13:12.445Z,9.90
2019-03-30T06:15:45.166Z,9.80
2019-03-30T06:18:16.984Z,10.03
2019-03-30T06:20:55.776Z,9.00
2019-03-30T06:23:27.694Z,10.37
2019-03-30T06:26:03.969Z,9.80
2019-03-30T06:28:51.427Z,10.17
2019-03-30T06:31:26.110Z,11.10
2019-03-30T06:34:01.777Z,10.60
2019-03-30T06:36:32.893Z,10.07
2019-03-30T06:39:07.375Z,10.00
2019-03-30T06:41:39.826Z,10.40
2019-03-30T06:44:10.566Z,10.37
2019-03-30T06:46:44.904Z,10.20
2019-03-30T06:49:16.530Z,10.70
2019-03-30T06:51:54.451Z,10.40
2019-03-30T06:54:27.804Z,10.33
2019-03-30T06:56:59.784Z,10.20
2019-03-30T06:59:31.194Z,10.37
2019-03-30T07:02:04.796Z,11.20
2019-03-30T07:04:37.350Z,10.97
2019-03-30T07:07:12.561Z,10.63
2019-03-30T07:09:58.842Z,11.17
2019-03-30T07:12:34.513Z,10.53
2019-03-30T07:15:08.543Z,11.03
2019-03-30T07:17:45.576Z,11.23
2019-03-30T07:20:29.958Z,11.07
2019-03-30T07:23:11.914Z,10.93
2019-03-30T07:25:38.728Z,10.67
2019-03-30T07:28:12.247Z,10.63
2019-03-30T07:30:48.993Z,10.63
2019-03-30T07:36:20.612Z,11.13
2019-03-30T07:38:52.960Z,10.40
2019-03-30T07:41:29.909Z,10.60
2019-03-30T07:44:01.111Z,11.53
2019-03-30T07:46:33.413Z,11.13
2019-03-30T07:49:04.964Z,11.57
2019-03-30T07:51:38.256Z,11.53
2019-03-30T07:54:11.580Z,11.37
2019-03-30T07:57:16.592Z,11.47
2019-03-30T07:59:41.092Z,11.90
2019-03-30T08:02:15.992Z,11.37
2019-03-30T08:04:49.543Z,11.63
2019-03-30T08:07:24.484Z,11.73
2019-03-30T08:09:59.513Z,12.43
2019-03-30T08:12:33.591Z,11.73
2019-03-30T08:15:10.760Z,12.07
2019-03-30T08:17:46.514Z,11.70
2019-03-30T08:20:18.274Z,12.00
2019-03-30T08:22:54.426Z,11.50
2019-03-30T08:25:29.262Z,12.33
2019-03-30T08:28:17.575Z,12.03
2019-03-30T08:30:53.270Z,12.03
2019-03-30T08:33:26.309Z,12.00
2019-03-30T08:36:02.537Z,11.70
2019-03-30T08:38:40.527Z,12.43
2019-03-30T08:41:17.177Z,12.90
2019-03-30T08:44:13.859Z,11.93
2019-03-30T08:46:47.528Z,12.80
2019-03-30T08:49:21.150Z,12.07
2019-03-30T08:51:57.642Z,12.30
2019-03-30T08:54:29.897Z,12.30
2019-03-30T08:57:02.802Z,11.87
2019-03-30T08:59:34.986Z,12.07
2019-03-30T09:02:07.529Z,12.20
2019-03-30T09:04:39.303Z,11.80
2019-03-30T09:07:13.100Z,11.77
2019-03-30T09:09:48.556Z,11.30
2019-03-30T09:12:25.482Z,11.63
2019-03-30T09:14:59.309Z,12.00
2019-03-30T09:17:38.987Z,11.67
2019-03-30T09:20:47.911Z,12.00
2019-03-30T09:23:47.882Z,12.30
2019-03-30T09:26:20.494Z,11.47
2019-03-30T09:29:02.180Z,12.20
2019-03-30T09:31:34.786Z,11.90
2019-03-30T09:34:11.332Z,11.23
2019-03-30T09:36:46.152Z,11.57
2019-03-30T09:39:17.734Z,11.67
2019-03-30T09:41:49.953Z,11.70
2019-03-30T09:44:21.825Z,11.03
2019-03-30T09:46:53.173Z,10.70
2019-03-30T09:49:31.743Z,11.10
2019-03-30T09:52:16.631Z,11.17
2019-03-30T09:54:53.117Z,10.30
2019-03-30T09:57:27.277Z,9.33
2019-03-30T10:00:01.004Z,9.47
2019-03-30T10:02:36.534Z,8.70
2019-03-30T10:05:08.825Z,8.87
2019-03-30T10:07:41.110Z,7.83
2019-03-30T10:10:15.137Z,7.67
2019-03-30T10:12:50.142Z,8.00
2019-03-30T10:15:21.182Z,8.27
2019-03-30T10:17:52.779Z,8.00
2019-03-30T10:20:23.376Z,7.87
2019-03-30T10:22:57.279Z,7.27
2019-03-30T10:25:30.611Z,7.43
2019-03-30T10:28:04.096Z,8.53
2019-03-30T10:30:49.875Z,7.30
2019-03-30T10:33:22.016Z,7.33
2019-03-30T10:35:53.700Z,6.80
2019-03-30T10:38:24.752Z,6.70
2019-03-30T10:44:06.445Z,6.43
2019-03-30T10:46:57.516Z,6.10
2019-03-30T10:49:39.823Z,5.70
2019-03-30T10:52:42.469Z,6.57
2019-03-30T10:55:45.648Z,6.53
2019-03-30T10:58:37.769Z,6.73
2019-03-30T11:01:24.194Z,6.87
2019-03-30T11:03:58.260Z,6.93
2019-03-30T11:06:34.775Z,7.57
2019-03-30T11:09:35.144Z,6.70
2019-03-30T11:12:11.788Z,7.00
2019-03-30T11:14:49.354Z,7.70
2019-03-30T11:17:23.662Z,7.23
2019-03-30T11:20:00.393Z,7.47
2019-03-30T11:22:33.387Z,8.60
2019-03-30T11:25:07.717Z,8.13
2019-03-30T11:27:43.520Z,7.20
2019-03-30T11:30:17.528Z,7.50
2019-03-30T11:32:51.640Z,6.83
2019-03-30T11:35:23.221Z,8.33
2019-03-30T11:37:54.458Z,7.67
2019-03-30T11:40:25.422Z,7.20
2019-03-30T11:42:57.615Z,6.60
2019-03-30T11:45:32.488Z,6.67
2019-03-30T11:48:10.404Z,7.40
2019-03-30T11:50:48.274Z,6.77
2019-03-30T11:53:24.579Z,6.70
2019-03-30T11:56:30.896Z,7.33
2019-03-30T11:59:46.060Z,6.77
2019-03-30T12:06:03.052Z,6.53
2019-03-30T12:08:42.930Z,6.87
2019-03-30T12:11:21.974Z,7.08
2019-03-30T12:13:57.463Z,7.10
2019-03-30T12:16:46.789Z,6.35
2019-03-30T12:19:22.857Z,6.10
2019-03-30T12:21:55.915Z,6.95
2019-03-30T12:24:29.708Z,6.85
2019-03-30T12:31:06.079Z,7.40
2019-03-30T12:33:53.617Z,6.97
2019-03-30T12:36:27.648Z,7.20
2019-03-30T12:39:07.543Z,6.33
2019-03-30T12:41:39.065Z,6.40
2019-03-30T12:44:10.388Z,6.10
2019-03-30T12:46:42.209Z,7.17
2019-03-30T12:49:15.373Z,6.92
2019-03-30T12:51:51.083Z,6.87
2019-03-30T12:54:29.671Z,7.17
2019-03-30T12:57:04.434Z,6.72
2019-03-30T12:59:39.390Z,6.67
2019-03-30T13:02:14.959Z,8.45
2019-03-30T13:04:48.536Z,11.38
2019-03-30T13:07:22.194Z,6.95
2019-03-30T13:09:55.829Z,7.12
2019-03-30T13:12:43.235Z,6.90
2019-03-30T13:15:15.077Z,6.00
2019-03-30T13:17:45.808Z,6.37
2019-03-30T13:20:20.021Z,6.00
2019-03-30T13:23:06.041Z,5.80
2019-03-30T13:25:41.187Z,5.87
2019-03-30T13:28:15.156Z,6.00
2019-03-30T13:30:47.789Z,5.90
2019-03-30T13:33:19.087Z,6.08
2019-03-30T13:35:50.495Z,6.47
2019-03-30T13:38:21.301Z,7.33
2019-03-30T13:40:57.643Z,6.65
2019-03-30T13:43:32.551Z,6.45
2019-03-30T13:46:04.827Z,6.35
2019-03-30T13:48:35.583Z,6.25
2019-03-30T13:51:11.627Z,5.90
2019-03-30T13:53:45.257Z,6.10
2019-03-30T13:56:23.147Z,5.50
2019-03-30T13:58:57.366Z,5.40
2019-03-30T14:01:30.411Z,6.60
2019-03-30T14:04:06.622Z,6.17
2019-03-30T14:06:38.479Z,6.17
2019-03-30T14:09:11.080Z,4.97
2019-03-30T14:11:42.593Z,5.47
2019-03-30T14:14:13.447Z,5.90
2019-03-30T14:16:45.045Z,5.70
2019-03-30T14:19:17.196Z,5.62
2019-03-30T14:21:50.657Z,6.17
2019-03-30T14:24:22.399Z,5.90
2019-03-30T14:26:53.567Z,6.15
2019-03-30T14:29:25.269Z,5.55
2019-03-30T14:31:56.484Z,6.20
2019-03-30T14:34:28.545Z,6.15
2019-03-30T14:37:00.353Z,6.17
2019-03-30T14:39:33.910Z,6.67
2019-03-30T14:42:05.469Z,5.42
2019-03-30T14:44:36.670Z,5.75
2019-03-30T14:47:11.360Z,5.85
2019-03-30T14:49:43.044Z,5.53
2019-03-30T14:52:14.105Z,5.87
2019-03-30T14:54:52.725Z,6.05
